createdAt,value
2018-12-14T00:00:28.842Z,63.70
2018-12-14T00:02:56.674Z,62.70
2018-12-14T00:05:24.212Z,56.67
2018-12-14T00:07:51.741Z,49.07
2018-12-14T00:10:19.552Z,40.57
2018-12-14T00:12:47.110Z,40.30
2018-12-14T00:15:14.626Z,44.33
2018-12-14T00:17:42.185Z,45.67
2018-12-14T00:20:09.740Z,49.63
2018-12-14T00:22:37.282Z,53.93
2018-12-14T00:25:05.305Z,57.10
2018-12-14T00:27:32.956Z,60.63
2018-12-14T00:30:00.704Z,64.77
2018-12-14T00:32:28.519Z,63.23
2018-12-14T00:34:56.670Z,69.57
2018-12-14T00:37:24.181Z,61.07
2018-12-14T00:39:52.033Z,57.77
2018-12-14T00:42:19.547Z,57.40
2018-12-14T00:44:47.080Z,48.03
2018-12-14T00:47:14.924Z,47.33
2018-12-14T00:49:42.557Z,50.53
2018-12-14T00:52:10.071Z,40.83
2018-12-14T00:54:37.600Z,39.37
2018-12-14T00:57:05.140Z,43.17
2018-12-14T00:59:32.937Z,42.83
2018-12-14T01:02:00.461Z,41.10
2018-12-14T01:04:28.000Z,42.53
2018-12-14T01:06:55.811Z,41.33
2018-12-14T01:09:23.354Z,36.93
2018-12-14T01:11:50.876Z,35.80
2018-12-14T01:14:18.606Z,37.63
2018-12-14T01:16:46.123Z,31.20
2018-12-14T01:19:13.701Z,28.00
2018-12-14T01:21:41.241Z,24.03
2018-12-14T01:24:08.754Z,20.57
2018-12-14T01:26:36.263Z,20.03
2018-12-14T01:29:04.057Z,20.30
2018-12-14T01:31:31.574Z,20.40
2018-12-14T01:33:59.096Z,21.00
2018-12-14T01:36:26.950Z,19.97
2018-12-14T01:38:54.476Z,21.20
2018-12-14T01:41:21.982Z,20.90
2018-12-14T01:43:49.853Z,20.07
2018-12-14T01:46:17.369Z,20.00
2018-12-14T01:48:44.898Z,20.00
2018-12-14T01:51:12.722Z,18.83
2018-12-14T01:53:40.274Z,19.27
2018-12-14T01:56:07.881Z,18.93
2018-12-14T01:58:35.586Z,20.47
2018-12-14T02:01:03.104Z,20.43
2018-12-14T02:03:30.621Z,19.30
2018-12-14T02:05:58.222Z,19.27
2018-12-14T02:08:25.734Z,19.93
2018-12-14T02:10:53.248Z,19.90
2018-12-14T02:13:20.787Z,22.23
2018-12-14T02:15:48.319Z,22.50
2018-12-14T02:18:15.823Z,25.00
2018-12-14T02:20:43.362Z,24.13
2018-12-14T02:23:10.879Z,24.83
2018-12-14T02:25:38.402Z,25.50
2018-12-14T02:28:06.175Z,26.07
2018-12-14T02:30:43.377Z,26.23
2018-12-14T02:33:10.947Z,26.27
2018-12-14T02:35:38.484Z,25.97
2018-12-14T02:38:06.007Z,26.27
2018-12-14T02:40:33.873Z,27.47
2018-12-14T02:43:01.523Z,25.33
2018-12-14T02:45:29.063Z,25.73
2018-12-14T02:47:56.672Z,28.33
2018-12-14T02:50:24.205Z,28.40
2018-12-14T02:52:51.706Z,26.50
2018-12-14T02:55:19.530Z,26.73
2018-12-14T02:57:47.041Z,24.47
2018-12-14T03:00:14.573Z,23.03
2018-12-14T03:02:42.457Z,23.27
2018-12-14T03:05:09.985Z,19.07
2018-12-14T03:07:37.516Z,18.47
2018-12-14T03:10:06.241Z,16.27
2018-12-14T03:12:33.763Z,19.30
2018-12-14T03:15:01.416Z,20.57
2018-12-14T03:17:29.425Z,22.77
2018-12-14T03:19:57.056Z,24.37
2018-12-14T03:22:25.777Z,26.07
2018-12-14T03:24:53.342Z,24.00
2018-12-14T03:27:20.994Z,23.70
2018-12-14T03:29:48.538Z,22.27
2018-12-14T03:32:16.107Z,9.60
2018-12-14T03:34:43.676Z,14.07
2018-12-14T03:37:11.190Z,5.73
2018-12-14T03:39:39.014Z,4.63
2018-12-14T03:42:07.175Z,3.00
2018-12-14T03:44:34.695Z,2.20
2018-12-14T03:47:02.254Z,2.80
2018-12-14T03:49:29.766Z,3.13
2018-12-14T03:51:57.267Z,1.90
2018-12-14T03:54:25.103Z,6.70
2018-12-14T03:56:52.620Z,18.80
2018-12-14T03:59:20.135Z,21.83
2018-12-14T04:01:47.694Z,20.53
2018-12-14T04:04:15.326Z,20.47
2018-12-14T04:06:42.908Z,19.90
2018-12-14T04:09:10.464Z,22.07
2018-12-14T04:11:37.979Z,20.70
2018-12-14T04:14:05.528Z,22.77
2018-12-14T04:16:33.372Z,22.60
2018-12-14T04:19:00.924Z,22.03
2018-12-14T04:21:28.950Z,23.47
2018-12-14T04:23:56.839Z,24.87
2018-12-14T04:26:24.399Z,23.90
2018-12-14T04:28:52.553Z,24.97
2018-12-14T04:31:20.743Z,27.63
2018-12-14T04:33:48.395Z,28.17
2018-12-14T04:36:15.950Z,23.23
2018-12-14T04:38:43.757Z,28.00
2018-12-14T04:41:11.276Z,25.77
2018-12-14T04:43:38.801Z,22.87
2018-12-14T04:46:06.359Z,26.67
2018-12-14T04:48:33.880Z,26.27
2018-12-14T04:51:01.418Z,25.60
2018-12-14T04:53:29.327Z,25.03
2018-12-14T04:55:56.886Z,26.20
2018-12-14T04:58:24.535Z,13.63
2018-12-14T05:00:52.148Z,21.80
2018-12-14T05:03:19.701Z,21.47
2018-12-14T05:05:47.252Z,19.13
2018-12-14T05:08:15.037Z,20.60
2018-12-14T05:10:42.639Z,12.40
2018-12-14T05:13:10.306Z,10.77
2018-12-14T05:15:38.640Z,13.27
2018-12-14T05:18:11.542Z,13.37
2018-12-14T05:20:39.056Z,9.50
2018-12-14T05:23:06.814Z,20.33
2018-12-14T05:25:35.947Z,16.40
2018-12-14T05:28:03.522Z,19.07
2018-12-14T05:30:31.111Z,18.17
2018-12-14T05:32:58.673Z,11.00
2018-12-14T05:35:26.748Z,14.77
2018-12-14T05:37:54.478Z,12.87
2018-12-14T05:40:22.033Z,13.33
2018-12-14T05:42:49.639Z,14.87
2018-12-14T05:45:17.526Z,13.70
2018-12-14T05:47:45.059Z,9.63
2018-12-14T05:50:13.150Z,12.00
2018-12-14T05:52:40.948Z,5.83
2018-12-14T05:55:08.540Z,10.03
2018-12-14T05:57:36.132Z,12.40
2018-12-14T06:00:05.257Z,12.70
2018-12-14T06:02:34.526Z,9.33
2018-12-14T06:05:02.059Z,8.93
2018-12-14T06:07:29.640Z,9.70
2018-12-14T06:09:57.190Z,7.57
2018-12-14T06:12:24.869Z,7.33
2018-12-14T06:14:52.767Z,7.10
2018-12-14T06:17:20.787Z,3.53
2018-12-14T06:19:48.350Z,8.30
2018-12-14T06:22:15.895Z,5.83
2018-12-14T06:24:43.442Z,7.00
2018-12-14T06:27:11.054Z,9.97
2018-12-14T06:29:38.626Z,6.93
2018-12-14T06:32:06.609Z,4.63
2018-12-14T06:34:34.120Z,8.27
2018-12-14T06:37:01.689Z,8.73
2018-12-14T06:39:29.576Z,6.27
2018-12-14T06:41:57.308Z,8.63
2018-12-14T06:44:24.841Z,8.03
2018-12-14T06:46:52.473Z,6.40
2018-12-14T06:49:19.999Z,4.90
2018-12-14T06:51:47.518Z,7.23
2018-12-14T06:54:15.378Z,7.33
2018-12-14T06:56:43.011Z,5.10
2018-12-14T06:59:10.531Z,8.47
2018-12-14T07:01:38.250Z,4.83
2018-12-14T07:04:05.767Z,10.43
2018-12-14T07:06:33.318Z,2.63
2018-12-14T07:09:01.148Z,10.33
2018-12-14T07:11:28.695Z,9.97
2018-12-14T07:13:56.225Z,10.83
2018-12-14T07:16:23.744Z,7.97
2018-12-14T07:18:51.485Z,8.97
2018-12-14T07:21:19.250Z,7.83
2018-12-14T07:23:46.774Z,9.60
2018-12-14T07:26:14.292Z,9.63
2018-12-14T07:28:41.912Z,5.30
2018-12-14T07:31:09.437Z,12.43
2018-12-14T07:33:36.966Z,8.90
2018-12-14T07:36:04.728Z,9.50
2018-12-14T07:38:32.371Z,11.03
2018-12-14T07:40:59.897Z,3.73
2018-12-14T07:43:28.407Z,3.47
2018-12-14T07:45:56.241Z,9.53
2018-12-14T07:48:23.753Z,6.30
2018-12-14T07:50:51.621Z,6.83
2018-12-14T07:53:19.165Z,5.57
2018-12-14T07:55:46.682Z,9.50
2018-12-14T07:58:14.236Z,3.77
2018-12-14T08:00:41.845Z,7.83
2018-12-14T08:03:09.414Z,5.97
2018-12-14T08:05:37.194Z,7.77
2018-12-14T08:08:04.793Z,8.20
2018-12-14T08:10:32.364Z,6.87
2018-12-14T08:13:00.475Z,9.53
2018-12-14T08:15:28.221Z,9.33
2018-12-14T08:17:56.998Z,6.20
2018-12-14T08:20:24.746Z,6.17
2018-12-14T08:22:53.188Z,13.70
2018-12-14T08:25:20.732Z,11.93
2018-12-14T08:27:48.525Z,10.17
2018-12-14T08:30:16.067Z,14.43
2018-12-14T08:32:43.612Z,10.27
2018-12-14T08:35:11.544Z,16.17
2018-12-14T08:37:39.059Z,14.17
2018-12-14T08:40:07.317Z,15.13
2018-12-14T08:42:36.151Z,17.20
2018-12-14T08:45:04.507Z,14.53
2018-12-14T08:47:32.057Z,16.37
2018-12-14T08:50:00.023Z,9.10
2018-12-14T08:52:27.531Z,10.70
2018-12-14T08:54:55.083Z,16.27
2018-12-14T08:57:22.858Z,16.13
2018-12-14T08:59:50.377Z,16.90
2018-12-14T09:02:17.936Z,16.63
2018-12-14T09:04:45.812Z,13.33
2018-12-14T09:07:13.351Z,12.77
2018-12-14T09:09:40.874Z,13.00
2018-12-14T09:12:08.613Z,13.63
2018-12-14T09:14:36.132Z,13.30
2018-12-14T09:17:03.700Z,15.57
2018-12-14T09:19:31.468Z,15.17
2018-12-14T09:21:58.988Z,13.63
2018-12-14T09:24:26.523Z,13.50
2018-12-14T09:26:54.148Z,14.87
2018-12-14T09:29:23.338Z,16.00
2018-12-14T09:31:51.143Z,15.80
2018-12-14T09:34:18.690Z,11.17
2018-12-14T09:36:46.222Z,17.73
2018-12-14T09:39:13.801Z,16.60
2018-12-14T09:41:41.360Z,15.07
2018-12-14T09:44:08.868Z,13.33
2018-12-14T09:46:37.122Z,11.73
2018-12-14T09:49:05.191Z,13.93
2018-12-14T09:51:32.816Z,14.03
2018-12-14T09:54:00.347Z,12.33
2018-12-14T09:56:28.163Z,14.43
2018-12-14T09:58:55.694Z,9.57
2018-12-14T10:01:23.245Z,9.97
2018-12-14T10:03:51.023Z,10.97
2018-12-14T10:06:18.922Z,12.00
2018-12-14T10:08:46.471Z,15.33
2018-12-14T10:11:14.480Z,15.73
2018-12-14T10:13:42.312Z,15.90
2018-12-14T10:16:10.076Z,13.23
2018-12-14T10:18:38.510Z,15.30
2018-12-14T10:21:06.123Z,16.93
2018-12-14T10:23:33.654Z,9.97
2018-12-14T10:26:01.647Z,15.50
2018-12-14T10:28:29.171Z,14.57
2018-12-14T10:30:56.743Z,16.17
2018-12-14T10:33:24.881Z,15.20
2018-12-14T10:35:52.506Z,14.40
2018-12-14T10:38:20.036Z,17.43
2018-12-14T10:40:47.850Z,16.67
2018-12-14T10:43:15.368Z,16.87
2018-12-14T10:45:43.240Z,17.90
2018-12-14T10:48:10.800Z,16.13
2018-12-14T10:50:39.720Z,16.57
2018-12-14T10:53:09.744Z,16.10
2018-12-14T10:55:37.290Z,15.87
2018-12-14T10:58:04.856Z,16.73
2018-12-14T11:00:38.358Z,16.67
2018-12-14T11:03:05.879Z,17.13
2018-12-14T11:05:33.483Z,16.37
2018-12-14T11:08:01.347Z,14.50
2018-12-14T11:10:28.950Z,15.73
2018-12-14T11:12:56.550Z,18.00
2018-12-14T11:15:24.095Z,17.57
2018-12-14T11:17:51.614Z,19.47
2018-12-14T11:20:19.130Z,17.33
2018-12-14T11:22:46.691Z,15.23
2018-12-14T11:25:14.258Z,15.77
2018-12-14T11:27:41.837Z,15.23
2018-12-14T11:30:09.839Z,14.67
2018-12-14T11:32:38.216Z,19.03
2018-12-14T11:35:05.745Z,19.97
2018-12-14T11:37:33.587Z,20.93
2018-12-14T11:40:01.173Z,19.27
2018-12-14T11:42:28.739Z,22.30
2018-12-14T11:44:56.615Z,21.13
2018-12-14T11:47:24.123Z,18.67
2018-12-14T11:49:51.653Z,20.20
2018-12-14T11:52:19.595Z,18.57
2018-12-14T11:54:47.121Z,19.30
2018-12-14T11:57:14.699Z,14.20
2018-12-14T11:59:42.585Z,18.07
2018-12-14T12:02:10.101Z,16.63
2018-12-14T12:04:37.611Z,18.97
2018-12-14T12:07:05.406Z,18.40
2018-12-14T12:09:33.504Z,18.37
2018-12-14T12:12:01.203Z,20.30
2018-12-14T12:14:28.759Z,19.13
2018-12-14T12:16:56.284Z,19.67
2018-12-14T12:19:23.803Z,18.40
2018-12-14T12:21:51.554Z,19.13
2018-12-14T12:24:19.080Z,20.83
2018-12-14T12:26:46.591Z,19.87
2018-12-14T12:29:14.152Z,18.63
2018-12-14T12:31:41.691Z,21.60
2018-12-14T12:34:09.203Z,21.73
2018-12-14T12:36:37.128Z,23.97
2018-12-14T12:39:05.870Z,25.30
2018-12-14T12:41:33.386Z,19.60
2018-12-14T12:44:01.235Z,22.40
2018-12-14T12:46:28.801Z,25.30
2018-12-14T12:48:56.513Z,23.00
2018-12-14T12:51:24.524Z,20.43
2018-12-14T12:53:52.177Z,23.13
2018-12-14T12:56:20.012Z,25.00
2018-12-14T12:58:47.843Z,23.87
2018-12-14T13:01:16.415Z,22.27
2018-12-14T13:03:43.926Z,21.33
2018-12-14T13:06:11.772Z,23.47
2018-12-14T13:08:39.746Z,22.80
2018-12-14T13:11:07.258Z,23.63
2018-12-14T13:13:35.152Z,24.40
2018-12-14T13:16:02.805Z,23.70
2018-12-14T13:18:30.379Z,23.70
2018-12-14T13:20:58.089Z,22.50
2018-12-14T13:23:25.693Z,23.47
2018-12-14T13:25:54.138Z,22.80
2018-12-14T13:28:22.060Z,21.13
2018-12-14T13:30:49.971Z,21.23
2018-12-14T13:33:18.019Z,21.23
2018-12-14T13:35:45.715Z,18.40
2018-12-14T13:38:13.271Z,21.77
2018-12-14T13:40:41.000Z,19.33
2018-12-14T13:43:09.481Z,15.33
2018-12-14T13:45:37.013Z,19.93
2018-12-14T13:48:04.549Z,19.87
2018-12-14T13:50:33.274Z,16.40
2018-12-14T13:53:00.837Z,18.73
2018-12-14T13:55:28.387Z,21.30
2018-12-14T13:57:56.324Z,22.80
2018-12-14T14:00:23.981Z,22.87
2018-12-14T14:02:51.528Z,23.57
2018-12-14T14:05:19.381Z,23.40
2018-12-14T14:07:47.176Z,21.87
2018-12-14T14:10:14.713Z,23.73
2018-12-14T14:12:42.269Z,21.97
2018-12-14T14:15:10.131Z,22.17
2018-12-14T14:17:37.665Z,21.93
2018-12-14T14:20:07.293Z,25.47
2018-12-14T14:22:35.009Z,24.70
2018-12-14T14:25:02.581Z,23.53
2018-12-14T14:27:30.372Z,22.83
2018-12-14T14:29:58.907Z,24.20
2018-12-14T14:32:26.472Z,27.40
2018-12-14T14:34:54.144Z,30.63
2018-12-14T14:37:21.734Z,26.00
2018-12-14T14:39:49.265Z,26.13
2018-12-14T14:42:16.857Z,20.50
2018-12-14T14:44:44.639Z,19.93
2018-12-14T14:47:12.192Z,21.97
2018-12-14T14:49:40.111Z,22.67
2018-12-14T14:52:07.632Z,22.53
2018-12-14T14:54:39.823Z,20.53
2018-12-14T14:57:04.987Z,18.97
2018-12-14T14:59:32.544Z,18.50
2018-12-14T15:02:00.101Z,17.37
2018-12-14T15:04:28.076Z,16.40
2018-12-14T15:06:55.632Z,15.70
2018-12-14T15:09:23.204Z,16.03
2018-12-14T15:11:51.083Z,16.97
2018-12-14T15:14:19.753Z,16.60
2018-12-14T15:16:47.288Z,16.93
2018-12-14T15:19:15.102Z,13.37
2018-12-14T15:21:42.618Z,15.83
2018-12-14T15:24:10.230Z,13.53
2018-12-14T15:26:38.022Z,12.50
2018-12-14T15:29:05.549Z,12.40
2018-12-14T15:31:33.100Z,12.00
2018-12-14T15:34:01.056Z,12.40
2018-12-14T15:36:28.612Z,12.67
2018-12-14T15:38:56.624Z,13.50
2018-12-14T15:41:24.154Z,14.13
2018-12-14T15:43:51.700Z,10.90
2018-12-14T15:46:19.518Z,14.37
2018-12-14T15:48:47.040Z,13.80
2018-12-14T15:51:14.604Z,12.17
2018-12-14T15:53:42.457Z,12.97
2018-12-14T15:56:10.366Z,14.20
2018-12-14T15:58:37.998Z,14.80
2018-12-14T16:01:05.898Z,12.57
2018-12-14T16:03:33.425Z,12.60
2018-12-14T16:06:01.230Z,15.17
2018-12-14T16:08:28.780Z,12.57
2018-12-14T16:10:56.351Z,12.87
2018-12-14T16:13:24.632Z,11.43
2018-12-14T16:15:52.276Z,13.77
2018-12-14T16:18:19.984Z,15.63
2018-12-14T16:20:47.523Z,13.10
2018-12-14T16:23:15.144Z,15.97
2018-12-14T16:25:42.708Z,15.93
2018-12-14T16:28:10.223Z,11.00
2018-12-14T16:30:37.740Z,18.40
2018-12-14T16:33:05.491Z,10.87
2018-12-14T16:35:33.032Z,5.77
2018-12-14T16:38:00.629Z,15.80
2018-12-14T16:40:28.242Z,16.80
2018-12-14T16:42:55.830Z,15.67
2018-12-14T16:45:26.364Z,9.73
2018-12-14T16:47:53.248Z,12.53
2018-12-14T16:50:20.866Z,15.90
2018-12-14T16:52:48.535Z,12.47
2018-12-14T16:55:16.085Z,15.67
2018-12-14T16:57:43.658Z,16.27
2018-12-14T17:00:11.584Z,9.83
2018-12-14T17:02:39.098Z,8.07
2018-12-14T17:05:07.338Z,14.90
2018-12-14T17:07:35.018Z,14.10
2018-12-14T17:10:02.717Z,15.80
2018-12-14T17:12:30.538Z,16.77
2018-12-14T17:14:59.763Z,9.87
2018-12-14T17:17:28.092Z,14.87
2018-12-14T17:19:55.702Z,10.33
2018-12-14T17:22:23.251Z,14.50
2018-12-14T17:24:50.992Z,14.33
2018-12-14T17:27:18.528Z,14.17
2018-12-14T17:29:46.046Z,10.20
2018-12-14T17:32:13.578Z,13.10
2018-12-14T17:34:41.102Z,8.93
2018-12-14T17:37:08.681Z,10.00
2018-12-14T17:39:36.183Z,6.97
2018-12-14T17:42:03.744Z,13.80
2018-12-14T17:44:31.290Z,13.93
2018-12-14T17:46:58.872Z,15.07
2018-12-14T17:49:26.838Z,14.13
2018-12-14T17:51:54.539Z,14.37
2018-12-14T17:54:22.065Z,11.33
2018-12-14T17:56:49.605Z,14.83
2018-12-14T17:59:17.189Z,15.00
2018-12-14T18:01:45.082Z,12.40
2018-12-14T18:04:12.608Z,13.80
2018-12-14T18:06:40.130Z,15.20
2018-12-14T18:09:07.699Z,15.20
2018-12-14T18:11:35.295Z,14.97
2018-12-14T18:14:03.135Z,14.13
2018-12-14T18:16:30.880Z,14.60
2018-12-14T18:18:58.477Z,16.87
2018-12-14T18:21:26.061Z,10.20
2018-12-14T18:23:53.595Z,8.33
2018-12-14T18:26:21.173Z,7.83
2018-12-14T18:28:48.712Z,7.60
2018-12-14T18:31:16.343Z,5.87
2018-12-14T18:33:43.952Z,13.73
2018-12-14T18:36:11.514Z,8.77
2018-12-14T18:38:39.315Z,12.23
2018-12-14T18:41:06.844Z,10.03
2018-12-14T18:43:34.869Z,9.40
2018-12-14T18:46:02.870Z,9.93
2018-12-14T18:48:31.066Z,7.10
2018-12-14T18:50:59.019Z,8.43
2018-12-14T18:53:26.695Z,9.80
2018-12-14T18:55:54.252Z,5.07
2018-12-14T18:58:21.785Z,6.63
2018-12-14T19:00:49.314Z,9.73
2018-12-14T19:03:16.834Z,10.17
2018-12-14T19:05:44.621Z,9.37
2018-12-14T19:08:12.176Z,10.33
2018-12-14T19:10:39.723Z,9.93
2018-12-14T19:13:07.260Z,7.80
2018-12-14T19:15:34.801Z,11.40
2018-12-14T19:18:02.643Z,9.70
2018-12-14T19:20:30.232Z,8.23
2018-12-14T19:22:57.795Z,6.40
2018-12-14T19:25:25.329Z,6.07
2018-12-14T19:27:52.928Z,7.53
2018-12-14T19:30:20.833Z,7.17
2018-12-14T19:32:48.352Z,8.77
2018-12-14T19:35:15.879Z,7.13
2018-12-14T19:37:43.480Z,5.40
2018-12-14T19:40:11.029Z,5.17
2018-12-14T19:42:39.243Z,8.90
2018-12-14T19:45:08.346Z,5.00
2018-12-14T19:47:36.730Z,4.83
2018-12-14T19:50:07.250Z,5.90
2018-12-14T19:52:36.256Z,8.27
2018-12-14T19:55:05.788Z,8.90
2018-12-14T19:57:33.349Z,9.03
2018-12-14T20:00:00.951Z,7.63
2018-12-14T20:02:28.483Z,9.73
2018-12-14T20:04:56.020Z,7.23
2018-12-14T20:07:23.886Z,11.10
2018-12-14T20:09:51.424Z,11.07
2018-12-14T20:12:18.992Z,11.60
2018-12-14T20:14:46.515Z,12.17
2018-12-14T20:17:14.179Z,11.17
2018-12-14T20:19:42.003Z,11.40
2018-12-14T20:22:09.572Z,8.70
2018-12-14T20:24:37.112Z,10.80
2018-12-14T20:27:04.655Z,9.40
2018-12-14T20:29:32.168Z,9.80
2018-12-14T20:31:59.763Z,8.50
2018-12-14T20:34:27.342Z,9.77
2018-12-14T20:36:54.933Z,10.13
2018-12-14T20:39:22.483Z,10.03
2018-12-14T20:41:50.057Z,9.10
2018-12-14T20:44:18.089Z,12.60
2018-12-14T20:46:45.623Z,13.63
2018-12-14T20:49:13.418Z,12.53
2018-12-14T20:51:40.940Z,14.33
2018-12-14T20:54:08.452Z,12.20
2018-12-14T20:56:36.007Z,12.47
2018-12-14T20:59:03.554Z,13.50
2018-12-14T21:01:31.091Z,14.07
2018-12-14T21:03:58.643Z,14.50
2018-12-14T21:06:26.555Z,12.30
2018-12-14T21:08:54.080Z,5.83
2018-12-14T21:11:21.621Z,4.33
2018-12-14T21:13:49.172Z,8.33
2018-12-14T21:16:16.776Z,3.97
2018-12-14T21:18:47.730Z,5.43
2018-12-14T21:21:15.293Z,4.60
2018-12-14T21:23:42.819Z,5.83
2018-12-14T21:26:10.332Z,4.73
2018-12-14T21:28:37.981Z,8.40
2018-12-14T21:31:05.551Z,4.67
2018-12-14T21:33:33.090Z,5.00
2018-12-14T21:36:00.650Z,7.90
2018-12-14T21:38:28.190Z,6.03
2018-12-14T21:40:56.016Z,5.50
2018-12-14T21:43:23.733Z,3.93
2018-12-14T21:45:52.452Z,10.43
2018-12-14T21:48:20.068Z,9.13
2018-12-14T21:50:47.574Z,8.60
2018-12-14T21:53:15.453Z,9.80
2018-12-14T21:55:42.991Z,7.33
2018-12-14T21:58:10.858Z,10.83
2018-12-14T22:00:38.688Z,9.37
2018-12-14T22:03:06.228Z,11.83
2018-12-14T22:05:33.779Z,10.03
2018-12-14T22:08:01.371Z,8.67
2018-12-14T22:10:28.900Z,12.43
2018-12-14T22:12:56.643Z,9.83
2018-12-14T22:15:24.260Z,12.73
2018-12-14T22:17:51.787Z,12.57
2018-12-14T22:20:19.560Z,14.30
2018-12-14T22:22:47.079Z,14.53
2018-12-14T22:25:14.607Z,13.47
2018-12-14T22:27:42.115Z,14.40
2018-12-14T22:30:09.679Z,14.13
2018-12-14T22:32:37.526Z,14.43
2018-12-14T22:35:05.143Z,13.20
2018-12-14T22:37:32.686Z,11.97
2018-12-14T22:40:00.218Z,13.40
2018-12-14T22:42:27.756Z,13.13
2018-12-14T22:44:55.582Z,14.47
2018-12-14T22:47:23.118Z,12.87
2018-12-14T22:49:50.774Z,12.17
2018-12-14T22:52:18.323Z,14.97
2018-12-14T22:54:45.894Z,13.17
2018-12-14T22:57:13.497Z,13.53
2018-12-14T22:59:41.041Z,13.63
2018-12-14T23:02:08.600Z,12.40
2018-12-14T23:04:36.134Z,13.60
2018-12-14T23:07:03.690Z,12.03
2018-12-14T23:09:31.664Z,12.53
2018-12-14T23:11:59.249Z,12.50
2018-12-14T23:14:26.794Z,12.03
2018-12-14T23:16:54.322Z,11.17
2018-12-14T23:19:21.900Z,10.77
2018-12-14T23:21:49.691Z,11.17
2018-12-14T23:24:17.256Z,11.03
2018-12-14T23:26:44.795Z,9.67
2018-12-14T23:29:12.377Z,10.33
2018-12-14T23:31:39.971Z,10.70
2018-12-14T23:34:07.659Z,8.60
2018-12-14T23:36:35.197Z,10.00
2018-12-14T23:39:03.217Z,9.80
2018-12-14T23:41:30.753Z,7.70
2018-12-14T23:43:58.294Z,10.43
2018-12-14T23:46:26.128Z,9.10
2018-12-14T23:48:53.638Z,8.33
2018-12-14T23:51:21.167Z,10.53
2018-12-14T23:53:48.696Z,9.83
2018-12-14T23:56:16.226Z,10.30
2018-12-14T23:58:44.025Z,9.37
